Time;durP1;ratioP1;P1;durP2;ratioP2;P2;SDS_P1;SDS_P2;PMS_P1;PMS_P2;Temp;Humidity;BMP_temperature;BMP_pressure;BME280_temperature;BME280_humidity;BME280_pressure;Samples;Min_cycle;Max_cycle;Signal;HPM_P1;HPM_P2
2021/09/15 00:01:08;;;;;;;;;;;;;;;9.72;54.30;99195.97;4877061;29;21763;-76
2021/09/15 00:03:36;;;;;;;;;;;;;;;9.76;54.65;99201.97;4897316;29;20486;-76
2021/09/15 00:06:06;;;;;;;;;;;;;;;9.84;54.39;99196.66;4901002;29;19922;-77
2021/09/15 00:08:31;;;;;;;;;;;;;;;9.84;54.26;99188.88;4888525;29;19923;-77
2021/09/15 00:10:57;;;;;;;;;;;;;;;9.88;54.10;99194.00;4887852;29;19970;-74
2021/09/15 00:13:23;;;;;;;;;;;;;;;9.93;54.14;99194.78;4887119;29;19927;-75
2021/09/15 00:15:48;;;;;;;;;;;;;;;9.96;54.39;99196.47;4899507;29;19934;-76
2021/09/15 00:18:14;;;;;;;;;;;;;;;9.97;53.94;99199.94;4887349;29;20017;-77
2021/09/15 00:20:39;;;;;;;;;;;;;;;9.95;54.27;99198.22;4872119;29;20450;-75
2021/09/15 00:23:05;;;;;;;;;;;;;;;9.95;53.97;99195.63;4872252;29;21390;-76
2021/09/15 00:25:30;;;;;;;;;;;;;;;9.99;54.13;99199.00;4898984;29;20031;-76
2021/09/15 00:28:09;;;;;;;;;;;;;;;9.99;53.89;99211.16;4872184;29;20006;-76
2021/09/15 00:30:34;;;;;;;;;;;;;;;10.00;54.17;99190.34;4899433;29;20021;-77
2021/09/15 00:33:00;;;;;;;;;;;;;;;10.01;53.75;99201.59;4900380;29;20346;-75
2021/09/15 00:35:25;;;;;;;;;;;;;;;10.00;54.11;99203.31;4856866;29;20914;-77
2021/09/15 00:38:04;;;;;;;;;;;;;;;10.03;54.18;99205.03;4872750;29;19918;-74
2021/09/15 00:40:32;;;;;;;;;;;;;;;10.00;53.69;99199.88;4881437;29;19923;-76
2021/09/15 00:42:57;;;;;;;;;;;;;;;10.01;54.16;99209.41;4872573;29;19926;-76
2021/09/15 00:45:23;;;;;;;;;;;;;;;10.01;53.68;99212.84;4891476;29;20017;-75
2021/09/15 00:47:49;;;;;;;;;;;;;;;10.03;53.77;99208.47;4889690;29;20356;-75
2021/09/15 00:50:15;;;;;;;;;;;;;;;10.04;53.92;99206.75;4885559;29;19926;-74
2021/09/15 00:52:41;;;;;;;;;;;;;;;10.04;53.60;99211.97;4902760;29;20252;-75
2021/09/15 00:55:09;;;;;;;;;;;;;;;10.07;53.71;99207.56;4901936;29;19922;-75
2021/09/15 00:57:36;;;;;;;;;;;;;;;10.05;53.68;99219.72;4885796;29;19950;-76
2021/09/15 01:00:03;;;;;;;;;;;;;;;10.04;53.78;99207.59;4885253;29;20009;-76
2021/09/15 01:02:29;;;;;;;;;;;;;;;10.04;53.63;99212.81;4885175;29;20558;-75
2021/09/15 01:05:02;;;;;;;;;;;;;;;10.07;53.70;99215.34;4873385;29;19961;-74
2021/09/15 01:07:30;;;;;;;;;;;;;;;10.08;53.74;99216.19;4889081;29;19923;-75
2021/09/15 01:09:56;;;;;;;;;;;;;;;10.10;53.41;99217.03;4874178;29;19935;-75
2021/09/15 01:12:26;;;;;;;;;;;;;;;10.13;53.92;99222.19;4870185;29;19923;-75
2021/09/15 01:15:10;;;;;;;;;;;;;;;10.11;53.56;99223.97;4902751;29;19923;-74
2021/09/15 01:17:49;;;;;;;;;;;;;;;10.12;53.46;99219.63;4874533;29;19924;-77
2021/09/15 01:20:38;;;;;;;;;;;;;;;10.08;53.85;99221.41;4869639;29;20287;-75
2021/09/15 01:23:22;;;;;;;;;;;;;;;10.07;53.95;99230.94;4887443;29;19951;-75
2021/09/15 01:26:07;;;;;;;;;;;;;;;10.09;53.63;99216.19;4889475;29;19965;-76
2021/09/15 01:28:55;;;;;;;;;;;;;;;10.14;53.76;99217.88;4860874;29;20393;-75
2021/09/15 01:31:22;;;;;;;;;;;;;;;10.13;53.97;99221.34;4884561;29;20000;-75
2021/09/15 01:33:47;;;;;;;;;;;;;;;10.16;53.86;99219.53;4889155;29;19966;-77
2021/09/15 01:36:13;;;;;;;;;;;;;;;10.19;54.06;99231.63;4891060;29;20019;-75
2021/09/15 01:38:41;;;;;;;;;;;;;;;10.15;53.69;99227.38;4913780;29;19923;-76
2021/09/15 01:41:07;;;;;;;;;;;;;;;10.10;53.66;99225.72;4912500;29;20218;-73
2021/09/15 01:43:33;;;;;;;;;;;;;;;10.15;53.86;99229.97;4892735;29;19923;-75
2021/09/15 01:45:58;;;;;;;;;;;;;;;10.19;53.38;99232.50;4884994;29;19919;-76
2021/09/15 01:48:24;;;;;;;;;;;;;;;10.17;53.74;99231.66;4872412;29;20522;-76
2021/09/15 01:50:50;;;;;;;;;;;;;;;10.16;53.47;99234.28;4882818;29;19926;-75
2021/09/15 01:53:16;;;;;;;;;;;;;;;10.15;53.84;99235.19;4885275;29;19965;-75
2021/09/15 01:55:42;;;;;;;;;;;;;;;10.19;53.85;99229.91;4904714;29;19947;-77
2021/09/15 01:58:26;;;;;;;;;;;;;;;10.20;53.57;99230.75;4885449;29;19923;-75
2021/09/15 02:01:14;;;;;;;;;;;;;;;10.14;53.83;99229.09;4892086;29;19991;-76
2021/09/15 02:03:59;;;;;;;;;;;;;;;10.15;54.32;99228.22;4889234;29;19922;-75
2021/09/15 02:06:42;;;;;;;;;;;;;;;10.17;53.68;99229.06;4889805;29;20383;-75
2021/09/15 02:09:25;;;;;;;;;;;;;;;10.16;53.81;99231.66;4890112;29;20606;-76
2021/09/15 02:12:08;;;;;;;;;;;;;;;10.15;53.94;99237.78;4878465;29;19923;-76
2021/09/15 02:14:34;;;;;;;;;;;;;;;10.12;54.23;99235.22;4909194;29;20298;-77
2021/09/15 02:17:00;;;;;;;;;;;;;;;10.13;53.97;99232.59;4896755;29;19918;-75
2021/09/15 02:19:27;;;;;;;;;;;;;;;10.13;54.11;99235.19;4899337;29;19923;-77
2021/09/15 02:22:19;;;;;;;;;;;;;;;10.12;54.02;99241.28;4891668;29;19947;-77
2021/09/15 02:25:04;;;;;;;;;;;;;;;10.13;54.33;99240.38;4904669;29;19986;-76
2021/09/15 02:27:48;;;;;;;;;;;;;;;10.12;54.06;99246.47;4901667;29;19919;-75
2021/09/15 02:30:19;;;;;;;;;;;;;;;10.15;53.94;99243.81;4899928;29;19958;-77
2021/09/15 02:32:55;;;;;;;;;;;;;;;10.16;54.02;99240.34;4872098;29;19986;-77
2021/09/15 02:35:39;;;;;;;;;;;;;;;10.18;54.37;99248.09;4892310;29;19931;-77
2021/09/15 02:38:43;;;;;;;;;;;;;;;10.14;54.38;99239.50;4886345;29;19918;-76
2021/09/15 02:41:43;;;;;;;;;;;;;;;10.12;54.12;99250.81;4895479;29;19942;-77
2021/09/15 02:44:18;;;;;;;;;;;;;;;10.12;54.18;99251.66;4874305;29;19922;-76
2021/09/15 02:47:02;;;;;;;;;;;;;;;10.10;54.25;99249.09;4901284;29;19923;-77
2021/09/15 02:49:48;;;;;;;;;;;;;;;10.07;54.17;99240.47;4899174;29;20289;-77
2021/09/15 02:52:26;;;;;;;;;;;;;;;10.08;54.20;99250.88;4885375;29;19923;-78
2021/09/15 02:55:10;;;;;;;;;;;;;;;10.06;54.19;99249.16;4855388;29;20022;-76
2021/09/15 02:57:38;;;;;;;;;;;;;;;10.10;54.56;99250.84;4884362;29;20292;-76
2021/09/15 03:00:17;;;;;;;;;;;;;;;10.13;54.28;99258.59;4873527;29;19941;-76
2021/09/15 03:02:50;;;;;;;;;;;;;;;10.14;54.30;99262.91;4886788;29;20601;-77
2021/09/15 03:05:30;;;;;;;;;;;;;;;10.17;54.50;99260.25;4888460;29;19927;-76
2021/09/15 03:08:08;;;;;;;;;;;;;;;10.16;54.10;99257.66;4887812;29;20752;-77
2021/09/15 03:10:33;;;;;;;;;;;;;;;10.14;54.23;99270.72;4873186;29;20438;-77
2021/09/15 03:12:59;;;;;;;;;;;;;;;10.14;54.37;99273.31;4884670;29;19919;-75
2021/09/15 03:15:25;;;;;;;;;;;;;;;10.15;54.29;99264.63;4871813;29;19927;-75
2021/09/15 03:17:51;;;;;;;;;;;;;;;10.16;54.62;99268.94;4883512;29;19973;-76
2021/09/15 03:20:17;;;;;;;;;;;;;;;10.15;54.34;99266.38;4883706;29;19919;-75
2021/09/15 03:22:42;;;;;;;;;;;;;;;10.16;54.28;99270.66;4887306;29;19923;-77
2021/09/15 03:25:08;;;;;;;;;;;;;;;10.16;54.39;99261.16;4884851;29;19927;-76
2021/09/15 03:27:34;;;;;;;;;;;;;;;10.18;54.39;99268.91;4872883;29;19923;-75
2021/09/15 03:30:00;;;;;;;;;;;;;;;10.20;54.67;99264.53;4884281;29;19919;-75
2021/09/15 03:32:26;;;;;;;;;;;;;;;10.24;54.46;99267.09;4898568;29;19923;-75
2021/09/15 03:34:51;;;;;;;;;;;;;;;10.22;54.34;99263.66;4876183;29;20001;-75
2021/09/15 03:37:17;;;;;;;;;;;;;;;10.23;54.93;99270.56;4888713;29;19998;-76
2021/09/15 03:39:43;;;;;;;;;;;;;;;10.25;54.57;99271.41;4885121;29;20351;-74
2021/09/15 03:42:09;;;;;;;;;;;;;;;10.27;54.82;99275.69;4884542;29;20638;-75
2021/09/15 03:44:34;;;;;;;;;;;;;;;10.28;54.55;99272.22;4869985;29;19922;-74
2021/09/15 03:47:01;;;;;;;;;;;;;;;10.25;54.42;99271.41;4906306;29;19930;-75
2021/09/15 03:49:27;;;;;;;;;;;;;;;10.27;54.45;99281.78;4901409;29;20933;-76
2021/09/15 03:51:54;;;;;;;;;;;;;;;10.30;54.79;99280.84;4888258;29;19965;-76
2021/09/15 03:54:21;;;;;;;;;;;;;;;10.29;54.77;99280.00;4873386;29;19950;-75
2021/09/15 03:56:47;;;;;;;;;;;;;;;10.33;54.99;99289.50;4901154;29;19931;-75
2021/09/15 03:59:14;;;;;;;;;;;;;;;10.34;54.66;99300.72;4873433;29;19923;-76
2021/09/15 04:01:40;;;;;;;;;;;;;;;10.34;54.68;99292.94;4866028;29;19920;-76
2021/09/15 04:04:06;;;;;;;;;;;;;;;10.34;54.73;99291.22;4857213;29;20272;-75
2021/09/15 04:06:33;;;;;;;;;;;;;;;10.38;55.00;99299.81;4887077;29;20701;-76
2021/09/15 04:08:58;;;;;;;;;;;;;;;10.41;55.00;99299.78;4868119;29;19919;-75
2021/09/15 04:11:24;;;;;;;;;;;;;;;10.42;54.56;99298.91;4883012;29;19926;-75
2021/09/15 04:13:50;;;;;;;;;;;;;;;10.46;55.01;99304.91;4880729;29;19922;-75
2021/09/15 04:16:16;;;;;;;;;;;;;;;10.46;54.76;99297.97;4885398;29;19923;-75
2021/09/15 04:18:41;;;;;;;;;;;;;;;10.46;55.03;99308.38;4885847;29;20248;-75
2021/09/15 04:21:07;;;;;;;;;;;;;;;10.43;54.75;99312.75;4876155;29;19923;-76
2021/09/15 04:31:55;;;;;;;;;;;;;;;10.46;54.59;99317.91;4899378;29;20013;-75
2021/09/15 04:34:21;;;;;;;;;;;;;;;10.49;55.20;99323.06;4891044;29;19929;-77
2021/09/15 04:36:53;;;;;;;;;;;;;;;10.50;54.67;99320.44;4891014;29;19937;-75
2021/09/15 04:39:19;;;;;;;;;;;;;;;10.49;54.89;99326.53;4889254;29;19927;-76
2021/09/15 04:41:45;;;;;;;;;;;;;;;10.48;55.20;99326.56;4889104;29;20025;-74
2021/09/15 04:44:11;;;;;;;;;;;;;;;10.46;55.08;99324.00;4887185;29;20578;-75
2021/09/15 04:46:38;;;;;;;;;;;;;;;10.41;54.95;99325.81;4870980;29;19946;-77
2021/09/15 04:49:04;;;;;;;;;;;;;;;10.40;54.83;99331.88;4902450;29;20418;-76
2021/09/15 04:51:37;;;;;;;;;;;;;;;10.43;55.12;99334.44;4889298;29;19962;-75
2021/09/15 04:54:02;;;;;;;;;;;;;;;10.47;55.43;99333.53;4874692;29;19923;-76
2021/09/15 04:56:30;;;;;;;;;;;;;;;10.47;55.22;99335.25;4871789;29;19931;-76
2021/09/15 04:58:55;;;;;;;;;;;;;;;10.48;55.49;99343.00;4886739;29;19919;-76
2021/09/15 05:01:21;;;;;;;;;;;;;;;10.51;55.41;99337.75;4874309;29;19919;-77
2021/09/15 05:03:47;;;;;;;;;;;;;;;10.54;55.37;99353.31;4886656;29;20308;-76
2021/09/15 05:06:14;;;;;;;;;;;;;;;10.61;55.37;99350.63;4886492;29;20363;-77
2021/09/15 05:08:40;;;;;;;;;;;;;;;10.63;55.36;99362.72;4888539;29;19919;-76
2021/09/15 05:11:05;;;;;;;;;;;;;;;10.66;55.33;99364.44;4875198;29;19931;-75
2021/09/15 05:13:31;;;;;;;;;;;;;;;10.66;55.06;99362.69;4886153;29;19923;-77
2021/09/15 05:15:57;;;;;;;;;;;;;;;10.65;55.08;99365.31;4857670;29;19949;-77
2021/09/15 05:18:23;;;;;;;;;;;;;;;10.69;55.03;99369.59;4875607;29;19923;-77
2021/09/15 05:20:49;;;;;;;;;;;;;;;10.71;55.33;99367.81;4886343;29;19981;-76
2021/09/15 05:23:15;;;;;;;;;;;;;;;10.72;55.25;99372.13;4902301;29;20316;-75
2021/09/15 05:25:41;;;;;;;;;;;;;;;10.72;55.49;99372.13;4890500;29;20344;-77
2021/09/15 05:28:11;;;;;;;;;;;;;;;10.78;54.91;99371.19;4887757;29;19955;-77
2021/09/15 05:30:38;;;;;;;;;;;;;;;10.77;55.09;99370.31;4870109;29;20014;-77
2021/09/15 05:33:06;;;;;;;;;;;;;;;10.79;55.31;99376.34;4875409;29;19926;-75
2021/09/15 05:35:32;;;;;;;;;;;;;;;9.76;54.92;99204.59;4858559;29;19923;-76
2021/09/15 05:38:01;;;;;;;;;;;;;;;10.71;55.58;99375.59;4873392;29;19926;-75
2021/09/15 05:40:28;;;;;;;;;;;;;;;10.76;55.04;99372.94;4869692;29;19927;-77
2021/09/15 05:42:54;;;;;;;;;;;;;;;10.76;55.14;99371.19;4869838;29;19926;-77
2021/09/15 05:45:20;;;;;;;;;;;;;;;10.82;55.34;99378.03;4886679;29;20315;-76
2021/09/15 05:47:47;;;;;;;;;;;;;;;10.84;55.12;99377.16;4855767;29;19929;-77
2021/09/15 05:50:12;;;;;;;;;;;;;;;10.82;55.58;99368.50;4902194;29;19919;-76
2021/09/15 05:52:44;;;;;;;;;;;;;;;10.81;55.49;99374.59;4888412;29;19919;-78
2021/09/15 05:55:10;;;;;;;;;;;;;;;10.80;55.23;99379.84;4910014;29;19919;-77
2021/09/15 05:57:37;;;;;;;;;;;;;;;10.78;55.10;99392.00;4886059;29;19987;-76
2021/09/15 06:00:05;;;;;;;;;;;;;;;10.77;55.45;99385.94;4890592;29;19919;-76
2021/09/15 06:02:40;;;;;;;;;;;;;;;10.80;55.21;99396.28;4887237;29;19923;-76
2021/09/15 06:05:11;;;;;;;;;;;;;;;10.87;55.46;99393.59;4889511;29;20033;-75
2021/09/15 06:07:43;;;;;;;;;;;;;;;10.88;55.49;99393.56;4884078;29;20276;-77
2021/09/15 06:10:09;;;;;;;;;;;;;;;10.90;55.16;99398.75;4874165;29;19930;-74
2021/09/15 06:12:37;;;;;;;;;;;;;;;10.92;55.46;99400.44;4884881;29;20260;-77
2021/09/15 06:15:03;;;;;;;;;;;;;;;10.99;55.46;99409.88;4856627;29;19991;-77
2021/09/15 06:17:29;;;;;;;;;;;;;;;11.05;54.74;99403.69;4866086;29;20021;-76
2021/09/15 06:19:55;;;;;;;;;;;;;;;11.06;55.35;99405.41;4873892;29;19982;-77
2021/09/15 06:22:40;;;;;;;;;;;;;;;11.18;54.68;99419.09;4880725;29;20009;-81
2021/09/15 06:25:20;;;;;;;;;;;;;;;11.28;55.04;99405.88;4889016;29;19969;-77
2021/09/15 06:27:45;;;;;;;;;;;;;;;11.37;54.85;99409.22;4855858;29;20403;-76
2021/09/15 06:30:11;;;;;;;;;;;;;;;11.37;54.63;99412.66;4875237;29;20078;-79
2021/09/15 06:32:39;;;;;;;;;;;;;;;11.36;54.99;99410.97;4905746;29;19926;-78
2021/09/15 06:35:05;;;;;;;;;;;;;;;11.38;54.63;99410.94;4891650;29;19919;-76
2021/09/15 06:37:30;;;;;;;;;;;;;;;11.37;54.76;99412.66;4888871;29;19927;-78
2021/09/15 06:39:56;;;;;;;;;;;;;;;11.38;55.07;99422.19;4907068;29;20406;-75
2021/09/15 06:42:21;;;;;;;;;;;;;;;11.43;54.71;99416.94;4890340;29;20025;-78
2021/09/15 06:44:48;;;;;;;;;;;;;;;11.46;55.35;99427.28;4888309;29;19927;-78
2021/09/15 06:47:14;;;;;;;;;;;;;;;11.48;54.88;99432.47;4860634;29;20473;-77
2021/09/15 06:49:39;;;;;;;;;;;;;;;11.47;55.30;99420.31;4905246;29;20022;-76
2021/09/15 06:52:06;;;;;;;;;;;;;;;11.52;55.12;99421.94;4876067;29;20323;-76
2021/09/15 06:54:32;;;;;;;;;;;;;;;11.58;54.95;99424.44;4874095;29;19958;-77
2021/09/15 06:56:58;;;;;;;;;;;;;;;11.70;54.95;99428.56;4890680;29;20388;-76
2021/09/15 06:59:27;;;;;;;;;;;;;;;11.73;54.84;99407.66;4892743;29;20066;-80
2021/09/15 07:02:02;;;;;;;;;;;;;;;11.79;54.76;99414.50;4891161;29;20391;-78
2021/09/15 07:04:28;;;;;;;;;;;;;;;11.87;54.84;99419.53;4899569;29;19927;-78
2021/09/15 07:06:54;;;;;;;;;;;;;;;12.07;54.37;99418.31;4899959;29;19923;-79
2021/09/15 07:09:19;;;;;;;;;;;;;;;12.16;54.34;99421.56;4873242;29;19923;-77
2021/09/15 07:11:45;;;;;;;;;;;;;;;12.22;54.04;99428.44;4885514;29;19919;-78
2021/09/15 07:14:11;;;;;;;;;;;;;;;12.24;53.86;99423.16;4873066;29;19930;-78
2021/09/15 07:16:40;;;;;;;;;;;;;;;12.27;53.96;99420.50;4885613;29;20375;-79
2021/09/15 07:19:05;;;;;;;;;;;;;;;12.24;54.03;99418.81;4884603;29;19919;-76
2021/09/15 07:21:31;;;;;;;;;;;;;;;12.25;54.03;99424.88;4880184;29;19981;-77
2021/09/15 07:23:57;;;;;;;;;;;;;;;12.23;53.68;99418.84;4872755;29;19922;-77
2021/09/15 07:26:22;;;;;;;;;;;;;;;12.19;53.81;99438.94;4885224;29;20295;-77
2021/09/15 07:28:48;;;;;;;;;;;;;;;12.08;53.80;99427.84;4869394;29;19931;-76
2021/09/15 07:31:14;;;;;;;;;;;;;;;12.01;53.72;99427.13;4881386;29;19922;-77
2021/09/15 07:33:39;;;;;;;;;;;;;;;12.05;54.27;99426.16;4879872;29;19923;-77
2021/09/15 07:36:05;;;;;;;;;;;;;;;12.11;54.08;99430.41;4909206;29;19968;-77
2021/09/15 07:38:32;;;;;;;;;;;;;;;12.18;54.11;99427.63;4892364;29;20032;-78
2021/09/15 07:40:57;;;;;;;;;;;;;;;12.31;54.03;99423.00;4904320;29;20363;-77
2021/09/15 07:43:23;;;;;;;;;;;;;;;12.38;53.59;99433.31;4894002;29;19974;-77
2021/09/15 07:45:57;;;;;;;;;;;;;;;12.44;53.76;99430.56;4892567;29;19931;-77
2021/09/15 07:48:49;;;;;;;;;;;;;;;12.63;53.81;99428.38;4907777;29;19949;-78
2021/09/15 07:51:15;;;;;;;;;;;;;;;12.74;53.10;99436.84;4891394;29;19943;-77
2021/09/15 07:53:45;;;;;;;;;;;;;;;12.74;53.38;99441.19;4871972;29;19926;-77
2021/09/15 07:56:13;;;;;;;;;;;;;;;12.71;53.28;99443.84;4879709;29;20047;-77
2021/09/15 07:58:39;;;;;;;;;;;;;;;12.65;53.32;99445.75;4906649;29;19954;-78
2021/09/15 08:01:04;;;;;;;;;;;;;;;12.58;53.05;99451.13;4908479;29;19943;-77
2021/09/15 08:03:30;;;;;;;;;;;;;;;12.49;53.59;99453.06;4881215;29;19923;-78
2021/09/15 08:05:57;;;;;;;;;;;;;;;12.48;53.22;99448.72;4907087;29;20379;-78
2021/09/15 08:08:26;;;;;;;;;;;;;;;12.39;53.29;99445.47;4906126;29;20136;-77
2021/09/15 08:10:51;;;;;;;;;;;;;;;12.32;53.23;99461.25;4905198;29;19930;-74
2021/09/15 08:13:20;;;;;;;;;;;;;;;12.25;53.66;99464.00;4888975;29;19927;-79
2021/09/15 08:15:51;;;;;;;;;;;;;;;12.20;53.35;99475.41;4872072;29;20014;-79
2021/09/15 08:18:16;;;;;;;;;;;;;;;12.16;53.35;99473.75;4885010;29;19926;-78
2021/09/15 08:20:45;;;;;;;;;;;;;;;12.07;53.50;99478.28;4903846;29;19923;-76
2021/09/15 08:23:15;;;;;;;;;;;;;;;12.09;53.70;99479.13;4890496;29;19930;-78
2021/09/15 08:25:41;;;;;;;;;;;;;;;12.03;53.54;99486.16;4885894;29;19923;-77
2021/09/15 08:28:07;;;;;;;;;;;;;;;11.96;53.85;99488.91;4875497;29;20014;-77
2021/09/15 08:30:36;;;;;;;;;;;;;;;11.97;53.67;99490.63;4892482;29;19918;-75
2021/09/15 08:33:02;;;;;;;;;;;;;;;11.74;53.63;99463.25;4884822;29;20363;-77
2021/09/15 08:35:28;;;;;;;;;;;;;;;11.94;53.68;99495.88;4884967;29;19934;-77
2021/09/15 08:37:54;;;;;;;;;;;;;;;11.90;53.65;99500.31;4886697;29;19919;-79
2021/09/15 08:40:21;;;;;;;;;;;;;;;11.91;53.70;99499.44;4889135;29;20031;-76
2021/09/15 08:42:47;;;;;;;;;;;;;;;11.79;53.85;99502.28;4889613;29;19982;-75
2021/09/15 08:45:12;;;;;;;;;;;;;;;11.81;53.54;99503.94;4904720;29;20087;-75
2021/09/15 08:47:42;;;;;;;;;;;;;;;11.85;53.42;99510.84;4887546;29;19920;-76
2021/09/15 08:50:10;;;;;;;;;;;;;;;11.88;53.55;99502.09;4888385;29;19950;-77
2021/09/15 08:52:38;;;;;;;;;;;;;;;11.91;53.44;99512.47;4891536;29;19920;-78
2021/09/15 08:55:04;;;;;;;;;;;;;;;11.99;53.14;99513.22;4894017;29;20027;-76
2021/09/15 08:57:30;;;;;;;;;;;;;;;12.04;53.09;99518.34;4889469;29;19926;-77
2021/09/15 08:59:56;;;;;;;;;;;;;;;12.03;52.94;99516.63;4905885;29;20324;-80
2021/09/15 09:02:22;;;;;;;;;;;;;;;11.99;53.02;99514.94;4889981;29;19974;-76
2021/09/15 09:04:55;;;;;;;;;;;;;;;12.00;52.87;99527.97;4908458;29;20095;-77
2021/09/15 09:07:22;;;;;;;;;;;;;;;12.02;52.75;99523.59;4907440;29;20009;-75
2021/09/15 09:09:48;;;;;;;;;;;;;;;12.01;52.86;99531.44;4893334;29;19926;-76
2021/09/15 09:12:18;;;;;;;;;;;;;;;11.96;52.59;99523.66;4894895;29;19977;-75
2021/09/15 09:14:44;;;;;;;;;;;;;;;11.93;52.70;99530.66;4909415;29;19923;-78
2021/09/15 09:17:30;;;;;;;;;;;;;;;11.93;52.58;99534.16;4890529;29;20401;-75
2021/09/15 09:20:14;;;;;;;;;;;;;;;12.03;52.74;99537.47;4890089;29;19926;-75
2021/09/15 09:22:58;;;;;;;;;;;;;;;12.09;52.40;99536.50;4897157;29;20334;-78
2021/09/15 09:25:24;;;;;;;;;;;;;;;12.13;52.31;99544.25;4891694;29;19923;-78
2021/09/15 09:27:50;;;;;;;;;;;;;;;12.18;52.29;99538.94;4881190;29;19920;-76
2021/09/15 09:30:42;;;;;;;;;;;;;;;12.28;52.07;99543.06;4881342;29;19919;-77
2021/09/15 09:33:08;;;;;;;;;;;;;;;12.34;51.89;99550.78;4898362;29;19923;-76
2021/09/15 09:35:38;;;;;;;;;;;;;;;12.30;52.12;99545.66;4893672;29;20346;-75
2021/09/15 09:38:17;;;;;;;;;;;;;;;12.29;52.12;99554.38;4880130;29;19914;-77
2021/09/15 09:40:56;;;;;;;;;;;;;;;12.25;52.15;99550.94;4875553;29;19922;-76
2021/09/15 09:43:22;;;;;;;;;;;;;;;12.21;52.14;99554.53;4880323;29;19926;-75
2021/09/15 09:45:48;;;;;;;;;;;;;;;12.29;51.99;99555.22;4909329;29;19927;-78
2021/09/15 09:48:47;;;;;;;;;;;;;;;12.35;52.01;99562.94;4904478;29;19919;-76
2021/09/15 09:51:26;;;;;;;;;;;;;;;12.41;51.61;99554.13;4861821;29;19923;-75
2021/09/15 09:54:08;;;;;;;;;;;;;;;12.43;52.01;99554.94;4888241;29;20032;-76
2021/09/15 09:56:35;;;;;;;;;;;;;;;12.45;51.51;99558.38;4911497;29;19919;-76
2021/09/15 09:59:02;;;;;;;;;;;;;;;12.50;51.54;99553.06;4890285;29;20372;-75
2021/09/15 10:01:29;;;;;;;;;;;;;;;12.52;51.38;99553.88;4908510;29;19923;-74
2021/09/15 10:03:55;;;;;;;;;;;;;;;12.64;51.50;99551.03;4880304;29;19918;-75
2021/09/15 10:06:21;;;;;;;;;;;;;;;12.88;51.48;99551.41;4908068;29;20351;-76
2021/09/15 10:08:48;;;;;;;;;;;;;;;13.20;50.94;99549.78;4896120;29;19945;-76
2021/09/15 10:11:14;;;;;;;;;;;;;;;13.67;50.74;99548.69;4910498;29;19919;-75
2021/09/15 10:13:40;;;;;;;;;;;;;;;14.00;49.95;99549.56;4880753;29;19915;-74
2021/09/15 10:16:07;;;;;;;;;;;;;;;13.99;48.92;99550.44;4888957;29;19923;-75
2021/09/15 10:18:33;;;;;;;;;;;;;;;13.86;49.09;99549.06;4895015;29;20025;-78
2021/09/15 10:21:00;;;;;;;;;;;;;;;13.94;49.21;99549.72;4879002;29;20063;-76
2021/09/15 10:23:35;;;;;;;;;;;;;;;13.92;49.11;99556.75;4876713;29;19919;-76
2021/09/15 10:26:19;;;;;;;;;;;;;;;14.05;48.95;99559.03;4889770;29;19923;-79
2021/09/15 10:29:04;;;;;;;;;;;;;;;14.03;48.47;99553.84;4899419;29;19919;-77
2021/09/15 10:31:48;;;;;;;;;;;;;;;13.97;48.59;99559.25;4890060;29;19923;-78
2021/09/15 10:34:34;;;;;;;;;;;;;;;13.92;48.76;99554.13;4878749;29;20365;-76
2021/09/15 10:36:59;;;;;;;;;;;;;;;13.99;48.46;99560.91;4894212;29;19970;-75
2021/09/15 10:39:26;;;;;;;;;;;;;;;14.08;48.43;99558.97;4893923;29;20362;-75
2021/09/15 10:41:52;;;;;;;;;;;;;;;14.24;48.50;99568.09;4892594;29;19926;-76
2021/09/15 10:44:18;;;;;;;;;;;;;;;14.35;47.96;99572.16;4898158;29;20351;-76
2021/09/15 10:46:44;;;;;;;;;;;;;;;14.42;47.76;99566.72;4882505;29;20056;-77
2021/09/15 10:49:22;;;;;;;;;;;;;;;14.50;47.61;99565.63;4875693;29;20021;-77
2021/09/15 10:52:08;;;;;;;;;;;;;;;14.64;47.62;99565.25;4908026;29;19930;-76
2021/09/15 10:54:47;;;;;;;;;;;;;;;14.63;46.95;99574.88;4879325;29;20328;-79
2021/09/15 10:57:12;;;;;;;;;;;;;;;14.62;47.39;99578.38;4889725;29;20279;-77
2021/09/15 10:59:48;;;;;;;;;;;;;;;14.68;46.89;99595.69;4879011;29;19919;-77
2021/09/15 11:02:32;;;;;;;;;;;;;;;14.71;46.72;99585.16;4898077;29;19982;-76
2021/09/15 11:05:21;;;;;;;;;;;;;;;14.57;47.12;99590.75;4884696;29;19923;-76
2021/09/15 11:07:47;;;;;;;;;;;;;;;14.60;46.98;99593.28;4879476;29;20131;-77
2021/09/15 11:10:34;;;;;;;;;;;;;;;14.64;46.74;99589.69;4890153;29;20375;-76
2021/09/15 11:13:01;;;;;;;;;;;;;;;14.66;46.88;99584.38;4887459;29;19958;-75
2021/09/15 11:15:28;;;;;;;;;;;;;;;14.74;46.77;99585.06;4892142;29;19923;-78
2021/09/15 11:17:54;;;;;;;;;;;;;;;14.79;46.67;99582.28;4906991;29;20382;-75
2021/09/15 11:20:20;;;;;;;;;;;;;;;14.91;46.21;99580.16;4874821;29;20093;-76
2021/09/15 11:22:47;;;;;;;;;;;;;;;15.09;45.91;99574.44;4889678;29;19922;-78
2021/09/15 11:25:19;;;;;;;;;;;;;;;15.15;45.75;99574.22;4876414;29;20399;-77
2021/09/15 11:28:03;;;;;;;;;;;;;;;15.18;45.74;99574.13;4888633;29;19919;-77
2021/09/15 11:30:29;;;;;;;;;;;;;;;15.33;45.58;99575.41;4889382;29;20105;-75
2021/09/15 11:32:56;;;;;;;;;;;;;;;15.56;45.17;99582.50;4876848;29;19926;-75
2021/09/15 11:35:22;;;;;;;;;;;;;;;15.64;44.72;99570.00;4905314;29;19966;-76
2021/09/15 11:37:47;;;;;;;;;;;;;;;15.71;44.59;99570.66;4877321;29;20022;-77
2021/09/15 11:40:13;;;;;;;;;;;;;;;15.74;44.33;99578.41;4876528;29;19926;-77
2021/09/15 11:42:42;;;;;;;;;;;;;;;15.77;43.71;99586.19;4906436;29;19923;-75
2021/09/15 11:45:12;;;;;;;;;;;;;;;15.68;43.78;99573.38;4862783;29;20017;-78
2021/09/15 11:47:38;;;;;;;;;;;;;;;15.71;44.01;99577.69;4905335;29;19926;-77
2021/09/15 11:50:14;;;;;;;;;;;;;;;15.80;43.81;99578.22;4903790;29;19918;-76
2021/09/15 11:52:41;;;;;;;;;;;;;;;15.95;43.41;99582.13;4886660;29;19919;-77
2021/09/15 11:55:10;;;;;;;;;;;;;;;16.04;43.40;99575.69;4888322;29;19935;-76
2021/09/15 11:57:42;;;;;;;;;;;;;;;16.08;43.18;99568.56;4874764;29;19918;-77
2021/09/15 12:00:08;;;;;;;;;;;;;;;15.91;42.64;99574.38;4883840;29;20141;-75
2021/09/15 12:02:37;;;;;;;;;;;;;;;15.79;43.02;99573.88;4887414;29;19919;-75
2021/09/15 12:05:03;;;;;;;;;;;;;;;15.78;42.92;99581.78;4904970;29;19927;-75
2021/09/15 12:07:29;;;;;;;;;;;;;;;15.73;42.79;99587.19;4877280;29;20417;-76
2021/09/15 12:09:55;;;;;;;;;;;;;;;15.69;42.91;99590.81;4898265;29;19919;-76
2021/09/15 12:12:21;;;;;;;;;;;;;;;15.74;42.93;99578.41;4879461;29;19923;-76
2021/09/15 12:14:48;;;;;;;;;;;;;;;15.84;42.83;99573.72;4881762;29;19930;-77
2021/09/15 12:17:13;;;;;;;;;;;;;;;15.94;42.62;99584.78;4906100;29;19923;-75
2021/09/15 12:19:46;;;;;;;;;;;;;;;16.07;42.45;99574.72;4889975;29;20017;-79
2021/09/15 12:22:22;;;;;;;;;;;;;;;16.20;42.27;99576.00;4892696;29;20043;-78
2021/09/15 12:25:03;;;;;;;;;;;;;;;16.15;41.81;99583.19;4905245;29;19927;-77
2021/09/15 12:27:29;;;;;;;;;;;;;;;15.99;42.08;99572.38;4900977;29;21415;-78
2021/09/15 12:30:03;;;;;;;;;;;;;;;15.81;42.28;99574.69;4882657;29;20276;-77
2021/09/15 12:32:35;;;;;;;;;;;;;;;15.73;41.95;99571.47;4904373;29;19923;-80
2021/09/15 12:35:00;;;;;;;;;;;;;;;15.60;42.43;99571.00;4877070;29;20402;-78
2021/09/15 12:37:26;;;;;;;;;;;;;;;15.47;42.34;99567.09;4905823;29;19926;-76
2021/09/15 12:39:53;;;;;;;;;;;;;;;15.29;42.43;99571.16;4886203;29;20125;-78
2021/09/15 12:42:23;;;;;;;;;;;;;;;15.13;42.62;99565.53;4881823;29;19926;-76
2021/09/15 12:45:02;;;;;;;;;;;;;;;15.11;42.95;99562.97;4888625;29;20407;-76
2021/09/15 12:47:38;;;;;;;;;;;;;;;15.06;42.37;99552.66;4890374;29;19922;-75
2021/09/15 12:50:24;;;;;;;;;;;;;;;14.99;42.72;99561.59;4905573;29;19997;-79
2021/09/15 12:53:06;;;;;;;;;;;;;;;14.93;43.03;99569.63;4887892;29;20356;-78
2021/09/15 12:55:32;;;;;;;;;;;;;;;14.93;42.93;99563.56;4908880;29;19930;-77
2021/09/15 12:58:02;;;;;;;;;;;;;;;14.83;42.79;99561.19;4877089;29;19946;-78
2021/09/15 13:00:31;;;;;;;;;;;;;;;14.76;42.99;99562.31;4904758;29;19926;-80
2021/09/15 13:02:58;;;;;;;;;;;;;;;14.65;43.31;99570.44;4905741;29;19974;-78
2021/09/15 13:05:24;;;;;;;;;;;;;;;14.59;43.23;99566.22;4891399;29;19938;-77
2021/09/15 13:07:52;;;;;;;;;;;;;;;14.57;43.21;99575.03;4903231;29;19931;-77
2021/09/15 13:10:17;;;;;;;;;;;;;;;14.47;43.31;99574.44;4890675;29;19919;-79